Time;durP1;ratioP1;P1;durP2;ratioP2;P2;SDS_P1;SDS_P2;PMS_P1;PMS_P2;Temp;Humidity;BMP_temperature;BMP_pressure;BME280_temperature;BME280_humidity;BME280_pressure;Samples;Min_cycle;Max_cycle;Signal;HPM_P1;HPM_P2
2021/12/30 06:49:03;;;;;;;124.72;46.53;;;;;;;;;;5605885;23;20105;-61
2021/12/30 06:51:35;;;;;;;125.50;47.10;;;;;;;;;;4881276;29;20053;-58
2021/12/30 06:54:01;;;;;;;116.88;44.97;;;;;;;;;;4879305;29;20041;-59
2021/12/30 06:56:27;;;;;;;121.00;47.05;;;;;;;;;;4879107;29;20059;-62
2021/12/30 06:58:53;;;;;;;113.90;46.83;;;;;;;;;;4879351;29;20041;-59
2021/12/30 07:01:19;;;;;;;129.98;49.97;;;;;;;;;;4878024;29;20409;-62
2021/12/30 07:03:45;;;;;;;131.48;50.75;;;;;;;;;;4877644;29;20049;-59
2021/12/30 07:06:11;;;;;;;125.13;48.97;;;;;;;;;;4879151;29;20121;-64
2021/12/30 07:08:37;;;;;;;121.72;46.75;;;;;;;;;;4879124;29;20599;-61
2021/12/30 07:11:03;;;;;;;119.22;46.40;;;;;;;;;;4879032;29;20037;-61
2021/12/30 07:13:29;;;;;;;111.63;43.17;;;;;;;;;;4878951;29;20077;-62
2021/12/30 07:15:55;;;;;;;108.03;42.03;;;;;;;;;;4878863;29;20036;-61
2021/12/30 07:18:21;;;;;;;120.32;46.60;;;;;;;;;;4878548;29;20370;-65
2021/12/30 07:20:47;;;;;;;115.90;44.30;;;;;;;;;;4878689;29;20056;-65
2021/12/30 07:23:13;;;;;;;102.72;40.45;;;;;;;;;;4878928;29;20426;-63
2021/12/30 07:25:39;;;;;;;89.85;36.63;;;;;;;;;;4877713;29;20567;-64
2021/12/30 07:28:06;;;;;;;84.25;33.60;;;;;;;;;;4878784;29;20044;-59
2021/12/30 07:30:32;;;;;;;82.57;33.05;;;;;;;;;;4878638;29;20082;-62
2021/12/30 07:32:58;;;;;;;86.35;34.63;;;;;;;;;;4878341;29;20043;-62
2021/12/30 07:35:25;;;;;;;86.15;34.33;;;;;;;;;;4878620;29;20501;-62
2021/12/30 07:37:51;;;;;;;82.32;34.22;;;;;;;;;;4878578;29;20061;-62
2021/12/30 07:40:18;;;;;;;83.95;32.80;;;;;;;;;;4878469;29;20032;-61
2021/12/30 07:42:44;;;;;;;76.88;30.80;;;;;;;;;;4878591;29;20101;-62
2021/12/30 07:45:11;;;;;;;71.97;30.02;;;;;;;;;;4878284;29;20032;-61
2021/12/30 07:47:38;;;;;;;69.78;28.52;;;;;;;;;;4878258;29;20112;-61
2021/12/30 07:50:04;;;;;;;67.30;27.80;;;;;;;;;;4883538;29;20084;-64
2021/12/30 07:52:30;;;;;;;66.05;26.80;;;;;;;;;;4896677;29;20096;-62
2021/12/30 07:54:56;;;;;;;66.55;27.40;;;;;;;;;;4896882;29;20032;-60
2021/12/30 07:57:22;;;;;;;62.35;26.17;;;;;;;;;;4896740;29;20029;-58
2021/12/30 07:59:49;;;;;;;57.90;26.15;;;;;;;;;;4896807;29;20437;-62
2021/12/30 08:02:15;;;;;;;58.83;26.55;;;;;;;;;;4896539;29;20037;-59
2021/12/30 08:04:41;;;;;;;62.92;29.85;;;;;;;;;;4896606;29;20028;-62
2021/12/30 08:07:07;;;;;;;63.25;28.85;;;;;;;;;;4896449;29;20378;-58
2021/12/30 08:09:33;;;;;;;58.13;27.05;;;;;;;;;;4896579;29;20084;-60
2021/12/30 08:12:00;;;;;;;60.08;26.35;;;;;;;;;;4896049;29;20040;-60
2021/12/30 08:14:27;;;;;;;49.72;24.45;;;;;;;;;;4896554;29;20052;-59
2021/12/30 08:16:53;;;;;;;51.72;24.08;;;;;;;;;;4896433;29;20032;-59
2021/12/30 08:19:19;;;;;;;51.78;24.30;;;;;;;;;;4895841;29;20054;-58
2021/12/30 08:21:45;;;;;;;55.72;24.90;;;;;;;;;;4895635;29;20057;-60
2021/12/30 08:24:12;;;;;;;63.15;30.27;;;;;;;;;;4895587;29;20040;-63
2021/12/30 08:26:39;;;;;;;67.95;29.20;;;;;;;;;;4895942;29;20051;-63
2021/12/30 08:29:05;;;;;;;66.97;28.90;;;;;;;;;;4896028;29;20025;-62
2021/12/30 08:31:33;;;;;;;67.53;30.33;;;;;;;;;;4895830;29;20040;-64
2021/12/30 08:33:59;;;;;;;67.55;29.40;;;;;;;;;;4895976;29;20051;-62
2021/12/30 08:36:25;;;;;;;65.30;29.35;;;;;;;;;;4879162;29;20437;-61
2021/12/30 08:38:51;;;;;;;69.05;28.83;;;;;;;;;;4895887;29;20128;-63
2021/12/30 08:41:17;;;;;;;64.70;27.52;;;;;;;;;;4895840;29;20440;-61
2021/12/30 08:43:43;;;;;;;56.05;24.95;;;;;;;;;;4896201;29;20039;-64
2021/12/30 08:46:09;;;;;;;61.60;26.92;;;;;;;;;;4895763;29;20496;-62
2021/12/30 08:48:38;;;;;;;62.88;28.13;;;;;;;;;;4898163;29;20048;-67
2021/12/30 08:51:04;;;;;;;62.90;27.58;;;;;;;;;;4898220;29;20058;-63
2021/12/30 08:53:32;;;;;;;59.95;26.73;;;;;;;;;;4896829;29;20444;-67
2021/12/30 08:56:00;;;;;;;57.80;25.17;;;;;;;;;;4881835;29;20064;-61
2021/12/30 08:58:26;;;;;;;56.28;24.83;;;;;;;;;;4898757;29;20025;-69
2021/12/30 09:00:52;;;;;;;54.65;26.65;;;;;;;;;;4896256;29;20039;-60
2021/12/30 09:03:20;;;;;;;49.90;23.55;;;;;;;;;;4896595;29;20111;-65
2021/12/30 09:05:47;;;;;;;56.50;25.42;;;;;;;;;;4896131;29;20528;-64
2021/12/30 09:08:14;;;;;;;53.03;23.88;;;;;;;;;;4895948;29;20033;-63
2021/12/30 09:10:45;;;;;;;47.65;23.13;;;;;;;;;;4895629;29;20366;-65
2021/12/30 09:13:11;;;;;;;51.33;24.10;;;;;;;;;;4895572;29;20024;-65
2021/12/30 09:15:37;;;;;;;48.72;23.27;;;;;;;;;;4898692;29;20021;-68
2021/12/30 09:18:05;;;;;;;51.97;24.13;;;;;;;;;;4914677;29;20036;-69
2021/12/30 09:20:31;;;;;;;51.05;25.90;;;;;;;;;;4914330;29;20051;-71
2021/12/30 09:22:58;;;;;;;51.40;25.13;;;;;;;;;;4914604;29;20115;-66
2021/12/30 09:25:24;;;;;;;46.53;23.05;;;;;;;;;;4913177;29;20593;-59
2021/12/30 09:27:52;;;;;;;42.88;22.65;;;;;;;;;;4914805;29;20032;-69
2021/12/30 09:30:18;;;;;;;59.70;31.15;;;;;;;;;;4914591;29;20544;-81
2021/12/30 09:32:45;;;;;;;64.75;32.97;;;;;;;;;;4913963;29;20028;-60
2021/12/30 09:35:12;;;;;;;52.35;28.40;;;;;;;;;;4913843;29;20470;-63
